KPZQ METAR Reports


Rogers City, Presque Isle County Airport, MI, United States (KPZQ) 45-24-25N 083-48-46W
Aug 06, 2020 - 05:35 PM EDT / 2020.08.06 2135 UTC
Wind: Calm:0
Visibility: 10 mile(s):0
Sky conditions: partly cloudy
Temperature: 74.5 F (23.6 C)
Dew Point: 57.4 F (14.1 C)
Relative Humidity: 55%
Pressure (altimeter): 30.11 in. Hg (1019 hPa)
ob: KPZQ 062135Z AUTO 00000KT 10SM SCT090 24/14 A3011 RMK AO2 T02360141
cycle: 21

 

Rogers City METAR Meteogram

Weather Chart

Nearby METAR Reports

KPZQ - Rogers City, Michigan, USA
Distance from station: SSW 1mi, 2km
Updated: Thu, 06-Aug-2020 5:15pm EDT
Mostly cloudy
Mostly cloudy
 Wind from E
Wind: E 3 mph , 6 km/h
Temperature: 75°F , 24°C
Dew Point: 59°F , 15°C
Humidity: 57%
Barometer: 30.11 inHg , 1019.6 hPa
Clouds: Mostly cloudy
Visibility: 10 miles , 16 km
Cloud details: Mostly cloudy 9000 ft
2020/08/06 21:15 KPZQ 062115Z AUTO 08003KT 10SM BKN090 24/15 A3011 RMK AO2 T02380149
KAPN - Alpena, Michigan, USA
Distance from station: SSE 27mi, 43km
Updated: Thu, 06-Aug-2020 4:54pm EDT
NOT Current
Clear
Clear
 Wind from ESE
Wind: ESE 12 mph , 19 km/h
Temperature: 77°F , 25°C
Dew Point: 55°F , 13°C
Humidity: 47%
Barometer: 30.11 inHg , 1019.6 hPa
Clouds: Clear
Visibility: 10 miles , 16 km
2020/08/06 20:54 KAPN 062054Z AUTO 11010KT 10SM CLR 25/13 A3011 RMK AO2 SLP194 T02500133 58006
 
KSLH - Cheboygan, Michigan, USA
Distance from station: WNW 38mi, 61km
Updated: Thu, 06-Aug-2020 5:15pm EDT
Clear
Clear
 Wind from SW
Wind: SW 5 mph , 7 km/h
Temperature: 77°F , 25°C
Dew Point: 57°F , 14°C
Humidity: 51%
Barometer: 30.08 inHg , 1018.6 hPa
Clouds: Clear
Visibility: 10 miles , 16 km
2020/08/06 21:15 KSLH 062115Z AUTO 23004KT 10SM CLR 25/14 A3008 RMK AO2 T02500144
KDRM - Drummond Is, Michigan, USA
Distance from station: N 40mi, 65km
Updated: Thu, 06-Aug-2020 5:35pm EDT
Clear
Clear
 Wind from SSW
Wind: SSW 6 mph , 9 km/h
Temperature: 75°F , 24°C
Dew Point: 61°F , 16°C
Humidity: 61%
Barometer: 30.09 inHg , 1019 hPa
Clouds: Clear
Visibility: 10 miles , 16 km
2020/08/06 21:35 KDRM 062135Z AUTO 20005KT 10SM CLR 24/16 A3009 RMK AO2 T02400161
 
KPLN - Pellston, Michigan, USA
Distance from station: WNW 49mi, 79km
Updated: Thu, 06-Aug-2020 4:54pm EDT
NOT Current
Clear
Clear
 Wind from W
Wind: W 8 mph , 13 km/h
Temperature: 79°F , 26°C
Dew Point: 55°F , 13°C
Humidity: 45%
Barometer: 30.10 inHg , 1019.3 hPa
Clouds: Clear
Visibility: 10 miles , 16 km
2020/08/06 20:54 KPLN 062054Z AUTO 27007KT 10SM CLR 26/13 A3010 RMK AO2 SLP193 T02560133 57006
KMCD - Mackinac Island, Michigan, USA
Distance from station: NW 50mi, 80km
Updated: Thu, 06-Aug-2020 5:35pm EDT
Partly cloudy
Partly cloudy
 Wind from W
Wind: W 10 mph , 17 km/h
Temperature: 73°F , 23°C
Dew Point: 59°F , 15°C
Humidity: 61%
Barometer: 30.10 inHg , 1019.3 hPa
Clouds: Partly cloudy
Visibility: 10 miles , 16 km
Cloud details: Partly cloudy 9000 ft
2020/08/06 21:35 KMCD 062135Z AUTO 27009KT 10SM SCT090 23/15 A3010 RMK AO2 T02310148